ホニアラ の空港の天気 - METARとTAF

ホニアラ国際空港 ( AGGH / HIR ) - ソロモン諸島 ガダルカナル島ホニアラ
飛行場実況気象(Metar)
観測時間07/29 14:00 SBT (07/29 03:00 UTC)
風向・風速北北西 3m/s
視程10km以上
天気現象
全天の4割程度の雲 雲底高度 610m
少しの雲 雲底高度 640m
気温31℃
湿度70%
気圧1010hPa
METARAGGH 290300Z 34005KT 9999 SCT020 FEW021CB 31/25 Q1010 RMKS: CB ASSW SH TO S
過去の天気等 Google飛行場航空写真 Wunderground天気予報

過去48時間のMETAR

飛行場予報(TAF)
発表時間: 7/29 10:10 SBT (7/28 23:10 UTC)
予報対象時間: 29日11時 SBT ~ 30日11時 SBT
風向・風速北東 5m/s
視程10km以上
少しの雲 雲底高度 610m
全天の4割程度の雲 雲底高度 3660m
TAF AGGH 282310Z 2900/2924 05010KT 9999 FEW020 SCT120 T 30 31 29 27 Q 1011 1009 1009 1011